createdAt,value
2023-01-05T00:01:40.565Z,41.40
2023-01-05T00:04:09.251Z,41.55
2023-01-05T00:06:39.624Z,36.92
2023-01-05T00:09:08.822Z,43.90
2023-01-05T00:11:54.187Z,42.55
2023-01-05T00:14:44.096Z,38.35
2023-01-05T00:17:31.855Z,40.30
2023-01-05T00:20:18.240Z,41.03
2023-01-05T00:22:48.892Z,42.13
2023-01-05T00:25:19.325Z,40.10
2023-01-05T00:27:50.801Z,34.40
2023-01-05T00:30:23.254Z,39.50
2023-01-05T00:32:51.572Z,37.40
2023-01-05T00:35:20.541Z,39.88
2023-01-05T00:37:50.158Z,40.65
2023-01-05T00:40:19.987Z,36.83
2023-01-05T00:42:48.769Z,33.30
2023-01-05T00:45:22.311Z,37.85
2023-01-05T00:47:52.017Z,39.10
2023-01-05T00:50:20.976Z,44.50
2023-01-05T00:52:50.094Z,39.72
2023-01-05T00:55:18.895Z,41.75
2023-01-05T00:57:47.139Z,37.53
2023-01-05T01:00:19.415Z,39.65
2023-01-05T01:02:53.022Z,42.55
2023-01-05T01:05:21.581Z,44.53
2023-01-05T01:07:50.273Z,35.75
2023-01-05T01:10:18.590Z,41.20
2023-01-05T01:12:46.896Z,45.15
2023-01-05T01:15:15.535Z,41.78
2023-01-05T01:17:43.762Z,46.65
2023-01-05T01:20:13.638Z,40.42
2023-01-05T01:22:42.274Z,36.47
2023-01-05T01:25:11.032Z,50.25
2023-01-05T01:27:39.285Z,48.22
2023-01-05T01:30:08.892Z,43.50
2023-01-05T01:32:37.197Z,45.03
2023-01-05T01:35:06.156Z,43.75
2023-01-05T01:37:35.905Z,41.10
2023-01-05T01:40:04.526Z,38.78
2023-01-05T01:42:32.971Z,39.70
2023-01-05T01:45:02.866Z,38.97
2023-01-05T01:47:39.786Z,41.83
2023-01-05T01:50:14.458Z,36.55
2023-01-05T01:52:45.609Z,44.60
2023-01-05T01:55:14.857Z,42.92
2023-01-05T01:57:44.038Z,42.50
2023-01-05T02:00:15.046Z,37.30
2023-01-05T02:02:43.720Z,43.00
2023-01-05T02:05:13.760Z,46.03
2023-01-05T02:07:48.308Z,48.92
2023-01-05T02:10:20.962Z,39.53
2023-01-05T02:13:06.369Z,37.90
2023-01-05T02:15:45.749Z,43.78
2023-01-05T02:18:30.210Z,40.95
2023-01-05T02:21:14.894Z,41.55
2023-01-05T02:24:14.823Z,39.08
2023-01-05T02:27:18.220Z,36.45
2023-01-05T02:30:27.141Z,43.20
2023-01-05T02:33:01.832Z,46.15
2023-01-05T02:35:39.192Z,44.47
2023-01-05T02:38:15.633Z,38.13
2023-01-05T02:40:49.273Z,44.70
2023-01-05T02:45:49.356Z,37.03
2023-01-05T02:48:19.529Z,39.35
2023-01-05T02:50:54.282Z,38.70
2023-01-05T02:53:28.363Z,46.13
2023-01-05T02:56:02.039Z,44.35
2023-01-05T02:58:35.603Z,40.10
2023-01-05T03:01:07.693Z,39.85
2023-01-05T03:03:42.455Z,44.45
2023-01-05T03:06:16.717Z,44.72
2023-01-05T03:08:53.392Z,38.00
2023-01-05T03:11:39.351Z,40.60
2023-01-05T03:14:12.525Z,35.40
2023-01-05T03:16:41.334Z,36.70
2023-01-05T03:19:32.101Z,41.45
2023-01-05T03:22:21.249Z,53.28
2023-01-05T03:25:09.205Z,49.55
2023-01-05T03:27:55.209Z,41.85
2023-01-05T03:30:46.061Z,37.85
2023-01-05T03:33:39.633Z,50.75
2023-01-05T03:36:10.459Z,48.65
2023-01-05T03:38:43.549Z,32.65
2023-01-05T03:41:15.268Z,38.47
2023-01-05T03:43:44.463Z,45.88
2023-01-05T03:46:15.711Z,43.00
2023-01-05T03:48:44.170Z,44.97
2023-01-05T03:51:16.366Z,41.40
2023-01-05T03:53:44.906Z,43.42
2023-01-05T03:56:13.585Z,38.63
2023-01-05T03:58:42.002Z,46.20
2023-01-05T04:01:10.433Z,44.92
2023-01-05T04:03:40.954Z,39.58
2023-01-05T04:06:09.562Z,44.58
2023-01-05T04:08:39.315Z,44.17
2023-01-05T04:11:16.003Z,40.25
2023-01-05T04:13:44.665Z,39.90
2023-01-05T04:16:13.735Z,40.30
2023-01-05T04:18:42.568Z,41.03
2023-01-05T04:21:10.804Z,41.88
2023-01-05T04:23:40.437Z,37.15
2023-01-05T04:26:09.019Z,47.63
2023-01-05T04:28:37.272Z,42.05
2023-01-05T04:31:05.975Z,45.78
2023-01-05T04:33:34.563Z,40.22
2023-01-05T04:36:02.756Z,47.35
2023-01-05T04:38:31.253Z,44.33
2023-01-05T04:41:01.038Z,44.08
2023-01-05T04:43:29.285Z,40.15
2023-01-05T04:45:57.716Z,40.53
2023-01-05T04:48:26.312Z,42.67
2023-01-05T04:50:55.473Z,45.15
2023-01-05T04:53:23.976Z,39.40
2023-01-05T04:55:52.940Z,39.42
2023-01-05T04:58:22.927Z,44.95
2023-01-05T05:00:51.468Z,35.83
2023-01-05T05:03:20.045Z,39.45
2023-01-05T05:05:48.339Z,48.63
2023-01-05T05:08:17.003Z,42.65
2023-01-05T05:10:45.607Z,50.97
2023-01-05T05:13:13.749Z,38.50
2023-01-05T05:15:45.882Z,37.95
2023-01-05T05:18:14.537Z,54.22
2023-01-05T05:20:45.362Z,36.28
2023-01-05T05:23:13.545Z,40.10
2023-01-05T05:25:41.919Z,48.05
2023-01-05T05:28:10.162Z,44.83
2023-01-05T05:30:39.043Z,42.22
2023-01-05T05:33:08.918Z,46.88
2023-01-05T05:35:37.485Z,45.38
2023-01-05T05:38:05.687Z,49.00
2023-01-05T05:40:34.148Z,44.25
2023-01-05T05:43:02.406Z,43.80
2023-01-05T05:45:30.619Z,47.03
2023-01-05T05:48:01.247Z,42.72
2023-01-05T05:50:30.947Z,47.22
2023-01-05T05:52:59.138Z,42.22
2023-01-05T05:55:27.836Z,39.60
2023-01-05T05:57:56.068Z,42.00
2023-01-05T06:00:24.529Z,38.13
2023-01-05T06:02:53.420Z,43.03
2023-01-05T06:05:21.809Z,49.72
2023-01-05T06:07:51.436Z,42.30
2023-01-05T06:10:19.910Z,45.25
2023-01-05T06:12:48.171Z,44.65
2023-01-05T06:15:16.971Z,45.70
2023-01-05T06:17:48.583Z,42.58
2023-01-05T06:20:17.789Z,35.20
2023-01-05T06:22:46.634Z,41.53
2023-01-05T06:25:16.723Z,37.85
2023-01-05T06:27:44.931Z,42.35
2023-01-05T06:30:14.539Z,42.40
2023-01-05T06:32:43.080Z,41.78
2023-01-05T06:35:11.752Z,42.75
2023-01-05T06:37:40.222Z,45.17
2023-01-05T06:40:11.575Z,38.17
2023-01-05T06:42:42.191Z,42.63
2023-01-05T06:45:13.936Z,31.55
2023-01-05T06:47:43.711Z,34.97
2023-01-05T06:50:12.645Z,42.38
2023-01-05T06:52:41.296Z,43.95
2023-01-05T06:55:11.268Z,35.58
2023-01-05T06:57:41.182Z,45.95
2023-01-05T07:00:12.039Z,43.42
2023-01-05T07:02:40.670Z,42.78
2023-01-05T07:05:10.098Z,40.78
2023-01-05T07:07:39.266Z,40.83
2023-01-05T07:10:08.806Z,35.17
2023-01-05T07:12:37.146Z,37.35
2023-01-05T07:15:08.304Z,42.55
2023-01-05T07:17:37.708Z,39.25
2023-01-05T07:20:07.910Z,36.22
2023-01-05T07:22:36.264Z,36.10
2023-01-05T07:25:04.576Z,43.65
2023-01-05T07:27:33.040Z,38.90
2023-01-05T07:30:01.347Z,33.03
2023-01-05T07:32:31.050Z,39.83
2023-01-05T07:34:59.508Z,46.55
2023-01-05T07:37:27.877Z,46.58
2023-01-05T07:39:56.144Z,46.78
2023-01-05T07:42:24.427Z,37.72
2023-01-05T07:44:52.878Z,47.28
2023-01-05T07:47:21.011Z,44.78
2023-01-05T07:49:50.865Z,41.92
2023-01-05T07:52:19.169Z,43.00
2023-01-05T07:54:47.622Z,43.60
2023-01-05T07:57:15.915Z,42.33
2023-01-05T07:59:44.227Z,45.88
2023-01-05T08:02:12.575Z,40.35
2023-01-05T08:04:40.942Z,51.60
2023-01-05T08:07:11.772Z,45.67
2023-01-05T08:09:57.367Z,41.10
2023-01-05T08:12:26.850Z,35.58
2023-01-05T08:14:55.071Z,40.65
2023-01-05T08:17:23.343Z,39.83
2023-01-05T08:19:51.936Z,41.28
2023-01-05T08:22:21.504Z,36.92
2023-01-05T08:24:49.738Z,41.72
2023-01-05T08:27:18.391Z,42.42
2023-01-05T08:29:46.665Z,37.60
2023-01-05T08:32:14.947Z,44.92
2023-01-05T08:34:43.719Z,41.33
2023-01-05T08:37:11.954Z,39.55
2023-01-05T08:39:41.760Z,45.33
2023-01-05T08:42:10.448Z,40.30
2023-01-05T08:44:38.661Z,35.40
2023-01-05T08:47:06.852Z,33.83
2023-01-05T08:49:35.787Z,36.53
2023-01-05T08:52:04.199Z,38.25
2023-01-05T08:54:32.533Z,29.30
2023-01-05T08:57:02.791Z,34.20
2023-01-05T08:59:31.040Z,41.42
2023-01-05T09:01:59.683Z,37.05
2023-01-05T09:04:28.580Z,37.63
2023-01-05T09:06:56.912Z,35.92
2023-01-05T09:09:25.296Z,40.60
2023-01-05T09:11:53.685Z,31.48
2023-01-05T09:14:23.290Z,38.50
2023-01-05T09:17:06.868Z,39.72
2023-01-05T09:19:37.140Z,37.50
2023-01-05T09:22:05.843Z,41.33
2023-01-05T09:24:34.074Z,41.25
2023-01-05T09:27:03.925Z,38.92
2023-01-05T09:29:33.582Z,38.42
2023-01-05T09:32:01.744Z,30.85
2023-01-05T09:34:30.615Z,38.92
2023-01-05T09:36:58.835Z,36.15
2023-01-05T09:39:27.264Z,30.00
2023-01-05T09:41:59.270Z,40.22
2023-01-05T09:44:31.967Z,39.33
2023-01-05T09:47:05.722Z,34.27
2023-01-05T09:52:09.546Z,42.67
2023-01-05T09:54:39.401Z,33.67
2023-01-05T09:57:14.768Z,36.55
2023-01-05T09:59:45.919Z,37.50
2023-01-05T10:02:28.278Z,34.58
2023-01-05T10:04:57.415Z,35.60
2023-01-05T10:07:35.250Z,39.08
2023-01-05T10:10:07.365Z,32.60
2023-01-05T10:13:03.378Z,37.72
2023-01-05T10:15:43.162Z,31.15
2023-01-05T10:18:15.698Z,36.33
2023-01-05T10:21:01.990Z,36.00
2023-01-05T10:23:54.552Z,31.20
2023-01-05T10:26:35.605Z,30.52
2023-01-05T10:29:23.617Z,34.30
2023-01-05T10:31:57.618Z,30.85
2023-01-05T10:34:43.901Z,36.92
2023-01-05T10:37:28.978Z,35.63
2023-01-05T10:40:09.555Z,30.92
2023-01-05T10:42:51.123Z,33.70
2023-01-05T10:45:21.001Z,42.10
2023-01-05T10:47:50.881Z,38.92
2023-01-05T10:50:34.899Z,34.20
2023-01-05T10:55:35.001Z,29.70
2023-01-05T10:58:03.442Z,30.02
2023-01-05T11:00:43.144Z,32.83
2023-01-05T11:03:17.093Z,37.75
2023-01-05T11:05:49.213Z,37.42
2023-01-05T11:08:19.849Z,39.58
2023-01-05T11:10:54.046Z,41.47
2023-01-05T11:13:31.781Z,37.45
2023-01-05T11:16:04.510Z,32.00
2023-01-05T11:18:37.625Z,32.20
2023-01-05T11:21:13.362Z,38.25
2023-01-05T11:23:44.087Z,34.83
2023-01-05T11:26:33.463Z,39.30
2023-01-05T11:29:14.679Z,34.45
2023-01-05T11:31:48.062Z,36.08
2023-01-05T11:34:43.139Z,37.15
2023-01-05T11:37:25.310Z,36.30
2023-01-05T11:39:56.627Z,33.53
2023-01-05T11:42:32.715Z,41.30
2023-01-05T11:45:03.667Z,33.95
2023-01-05T11:47:43.181Z,41.67
2023-01-05T11:50:22.880Z,39.78
2023-01-05T11:52:53.986Z,38.75
2023-01-05T11:55:34.432Z,40.80
2023-01-05T11:58:25.578Z,36.30
2023-01-05T12:01:19.450Z,28.33
2023-01-05T12:04:07.257Z,32.55
2023-01-05T12:07:07.284Z,39.00
2023-01-05T12:09:39.783Z,41.03
2023-01-05T12:12:20.174Z,29.42
2023-01-05T12:15:10.331Z,34.90
2023-01-05T12:17:50.932Z,36.03
2023-01-05T12:20:49.155Z,34.75
2023-01-05T12:23:47.386Z,34.25
2023-01-05T12:26:24.508Z,33.55
2023-01-05T12:35:53.946Z,30.63
2023-01-05T12:38:33.008Z,24.25
2023-01-05T12:41:34.820Z,39.65
2023-01-05T12:44:44.421Z,60.72
2023-01-05T12:47:30.007Z,33.22
2023-01-05T12:50:03.632Z,26.95
2023-01-05T12:55:08.496Z,39.45
2023-01-05T12:57:41.642Z,33.67
2023-01-05T13:00:13.200Z,34.83
2023-01-05T13:02:49.768Z,28.73
2023-01-05T13:05:23.151Z,36.47
2023-01-05T13:07:56.231Z,33.92
2023-01-05T13:10:29.477Z,26.42
2023-01-05T13:13:00.959Z,38.67
2023-01-05T13:15:38.807Z,33.55
2023-01-05T13:18:16.132Z,26.23
2023-01-05T13:20:48.068Z,31.90
2023-01-05T13:23:19.231Z,33.50
2023-01-05T13:25:53.030Z,28.02
2023-01-05T13:28:24.582Z,27.27
2023-01-05T13:31:17.081Z,26.70
2023-01-05T13:34:28.066Z,26.50
2023-01-05T13:37:26.590Z,22.88
2023-01-05T13:40:12.260Z,21.33
2023-01-05T13:43:26.384Z,17.52
2023-01-05T13:46:30.919Z,15.27
2023-01-05T13:49:18.056Z,13.70
2023-01-05T13:51:54.595Z,12.98
2023-01-05T13:54:49.265Z,14.57
2023-01-05T13:57:26.090Z,13.02
2023-01-05T14:00:06.513Z,14.25
2023-01-05T14:02:39.040Z,10.75
2023-01-05T14:05:18.304Z,14.10
2023-01-05T14:07:46.638Z,11.57
2023-01-05T14:10:26.259Z,10.77
2023-01-05T14:12:55.316Z,11.27
2023-01-05T14:15:42.381Z,10.52
2023-01-05T14:18:11.663Z,13.63
2023-01-05T14:20:44.971Z,11.18
2023-01-05T14:23:59.897Z,13.80
2023-01-05T14:27:06.755Z,12.48
2023-01-05T14:30:11.267Z,13.13
2023-01-05T14:35:30.038Z,10.70
2023-01-05T14:38:01.942Z,11.82
2023-01-05T14:40:37.235Z,10.95
2023-01-05T14:43:09.651Z,9.25
2023-01-05T14:45:40.896Z,9.38
2023-01-05T14:48:30.630Z,8.38
2023-01-05T14:51:13.886Z,7.80
2023-01-05T14:53:45.042Z,10.60
2023-01-05T14:56:25.077Z,12.48
2023-01-05T14:59:20.046Z,10.95
2023-01-05T15:01:52.576Z,10.98
2023-01-05T15:04:24.816Z,11.23
2023-01-05T15:07:09.743Z,8.85
2023-01-05T15:10:13.540Z,11.02
2023-01-05T15:12:56.455Z,10.38
2023-01-05T15:15:44.345Z,9.20
2023-01-05T15:18:40.428Z,8.35
2023-01-05T15:21:37.557Z,7.10
2023-01-05T15:24:28.701Z,6.03
2023-01-05T15:27:13.471Z,6.20
2023-01-05T15:30:01.509Z,6.97
2023-01-05T15:32:35.976Z,6.90
2023-01-05T15:35:12.090Z,8.77
2023-01-05T15:37:43.335Z,9.02
2023-01-05T15:40:31.187Z,9.63
2023-01-05T15:43:03.344Z,9.38
2023-01-05T15:45:34.582Z,7.43
2023-01-05T15:48:11.353Z,7.25
2023-01-05T15:50:45.999Z,7.28
2023-01-05T15:53:26.118Z,9.05
2023-01-05T15:55:54.461Z,6.70
2023-01-05T15:58:24.318Z,8.32
2023-01-05T16:01:07.205Z,7.53
2023-01-05T16:03:39.056Z,6.30
2023-01-05T16:06:10.372Z,8.93
2023-01-05T16:08:43.112Z,7.65
2023-01-05T16:11:14.796Z,9.53
2023-01-05T16:13:47.791Z,8.32
2023-01-05T16:16:49.871Z,7.43
2023-01-05T16:19:14.743Z,7.07
2023-01-05T16:21:46.975Z,8.68
2023-01-05T16:24:22.507Z,8.27
2023-01-05T16:26:51.022Z,8.75
2023-01-05T16:29:34.570Z,7.00
2023-01-05T16:32:02.964Z,7.15
2023-01-05T16:34:33.184Z,7.47
2023-01-05T16:37:03.675Z,6.75
2023-01-05T16:39:39.536Z,6.57
2023-01-05T16:42:40.343Z,8.13
2023-01-05T16:45:15.713Z,8.27
2023-01-05T16:47:44.938Z,6.95
2023-01-05T16:51:00.774Z,7.15
2023-01-05T16:53:30.671Z,7.75
2023-01-05T16:56:00.794Z,8.30
2023-01-05T16:58:39.865Z,6.78
2023-01-05T17:01:26.961Z,7.90
2023-01-05T17:03:55.803Z,7.10
2023-01-05T17:06:27.725Z,7.18
2023-01-05T17:09:01.611Z,7.45
2023-01-05T17:11:36.731Z,6.55
2023-01-05T17:14:07.657Z,6.70
2023-01-05T17:16:36.097Z,7.18
2023-01-05T17:19:10.941Z,7.50
2023-01-05T17:21:41.321Z,7.30
2023-01-05T17:24:14.065Z,8.70
2023-01-05T17:26:45.449Z,7.87
2023-01-05T17:29:20.534Z,8.25
2023-01-05T17:31:48.963Z,6.57
2023-01-05T17:34:17.816Z,6.68
2023-01-05T17:36:47.286Z,6.43
2023-01-05T17:39:20.668Z,7.57
2023-01-05T17:41:49.478Z,7.15
2023-01-05T17:44:18.356Z,7.60
2023-01-05T17:46:48.344Z,8.77
2023-01-05T17:49:19.470Z,8.88
2023-01-05T17:51:47.982Z,6.35
2023-01-05T17:54:17.812Z,5.63
2023-01-05T17:56:46.179Z,5.22
2023-01-05T17:59:14.473Z,4.63
2023-01-05T18:01:42.920Z,5.32
2023-01-05T18:04:11.653Z,5.30
2023-01-05T18:06:39.859Z,7.97
2023-01-05T18:09:08.265Z,4.63
2023-01-05T18:11:37.994Z,10.25
2023-01-05T18:16:39.597Z,5.22
2023-01-05T18:19:07.852Z,7.50
2023-01-05T18:21:36.266Z,11.02
2023-01-05T18:24:05.043Z,13.35
2023-01-05T18:26:33.273Z,12.07
2023-01-05T18:29:03.085Z,9.82
2023-01-05T18:31:31.654Z,10.98
2023-01-05T18:33:59.999Z,12.77
2023-01-05T18:36:28.204Z,9.85
2023-01-05T18:38:56.544Z,13.98
2023-01-05T18:41:25.456Z,10.50
2023-01-05T18:43:53.895Z,13.15
2023-01-05T18:46:23.920Z,10.95
2023-01-05T18:48:52.788Z,8.85
2023-01-05T18:51:20.995Z,11.73
2023-01-05T18:53:49.872Z,13.60
2023-01-05T18:56:18.202Z,11.48
2023-01-05T18:58:46.726Z,16.48
2023-01-05T19:01:18.155Z,15.15
2023-01-05T19:03:50.530Z,11.43
2023-01-05T19:06:21.270Z,14.05
2023-01-05T19:08:50.006Z,13.43
2023-01-05T19:11:21.600Z,13.13
2023-01-05T19:13:51.270Z,14.75
2023-01-05T19:16:21.182Z,13.27
2023-01-05T19:18:53.882Z,14.00
2023-01-05T19:21:22.792Z,12.93
2023-01-05T19:23:56.404Z,13.77
2023-01-05T19:28:54.416Z,13.00
2023-01-05T19:31:24.032Z,15.27
2023-01-05T19:33:56.151Z,13.63
2023-01-05T19:36:26.203Z,15.10
2023-01-05T19:38:54.438Z,14.77
2023-01-05T19:41:24.620Z,10.90
2023-01-05T19:43:54.958Z,12.50
2023-01-05T19:46:26.682Z,12.00
2023-01-05T19:48:59.136Z,11.23
2023-01-05T19:53:59.847Z,11.50
2023-01-05T19:56:30.965Z,8.52
2023-01-05T19:59:00.629Z,10.00
2023-01-05T20:01:30.972Z,31.33
2023-01-05T20:04:00.662Z,59.10
2023-01-05T20:06:30.666Z,10.77
2023-01-05T20:09:01.163Z,9.82
2023-01-05T20:11:40.600Z,11.98
2023-01-05T20:14:12.263Z,10.05
2023-01-05T20:16:41.655Z,11.73
2023-01-05T20:19:12.139Z,8.25
2023-01-05T20:21:40.518Z,10.23
2023-01-05T20:24:12.166Z,10.65
2023-01-05T20:26:40.987Z,8.60
2023-01-05T20:29:09.301Z,10.93
2023-01-05T20:31:41.005Z,11.57
2023-01-05T20:34:14.837Z,7.03
2023-01-05T20:36:43.210Z,9.13
2023-01-05T20:39:13.327Z,10.70
2023-01-05T20:41:43.433Z,12.07
2023-01-05T20:44:14.523Z,10.10
2023-01-05T20:46:45.523Z,9.00
2023-01-05T20:49:16.373Z,28.02
2023-01-05T20:51:45.182Z,18.67
2023-01-05T20:54:13.842Z,15.05
2023-01-05T20:56:43.923Z,11.55
2023-01-05T20:59:15.364Z,9.10
2023-01-05T21:01:44.856Z,9.40
2023-01-05T21:04:15.142Z,9.18
2023-01-05T21:06:44.355Z,8.38
2023-01-05T21:09:12.730Z,8.02
2023-01-05T21:11:41.213Z,8.52
2023-01-05T21:14:10.500Z,8.20
2023-01-05T21:16:42.086Z,9.85
2023-01-05T21:19:12.780Z,6.85
2023-01-05T21:21:42.362Z,7.05
2023-01-05T21:24:12.021Z,7.75
2023-01-05T21:26:40.376Z,6.93
2023-01-05T21:29:10.292Z,7.25
2023-01-05T21:31:39.337Z,7.20
2023-01-05T21:34:07.772Z,5.88
2023-01-05T21:36:38.463Z,5.22
2023-01-05T21:39:09.849Z,7.30
2023-01-05T21:41:57.176Z,8.45
2023-01-05T21:44:25.671Z,7.20
2023-01-05T21:46:54.008Z,7.25
2023-01-05T21:49:22.476Z,8.10
2023-01-05T21:52:07.979Z,7.25
2023-01-05T21:54:55.312Z,6.75
2023-01-05T21:57:24.044Z,8.82
2023-01-05T21:59:54.167Z,5.68
2023-01-05T22:02:22.569Z,6.93
2023-01-05T22:04:51.015Z,8.18
2023-01-05T22:07:19.561Z,10.57
2023-01-05T22:09:49.324Z,11.10
2023-01-05T22:12:17.628Z,8.40
2023-01-05T22:14:46.237Z,10.07
2023-01-05T22:17:14.406Z,7.88
2023-01-05T22:19:42.780Z,9.13
2023-01-05T22:22:11.175Z,8.40
2023-01-05T22:24:39.562Z,6.72
2023-01-05T22:27:09.282Z,8.43
2023-01-05T22:29:37.562Z,9.25
2023-01-05T22:32:06.183Z,10.43
2023-01-05T22:34:34.540Z,8.55
2023-01-05T22:37:02.801Z,6.78
2023-01-05T22:39:31.168Z,11.32
2023-01-05T22:41:59.491Z,5.55
2023-01-05T22:44:29.276Z,11.38
2023-01-05T22:46:58.645Z,9.20
2023-01-05T22:49:27.303Z,6.47
2023-01-05T22:51:55.632Z,9.18
2023-01-05T22:54:23.824Z,8.50
2023-01-05T22:56:52.227Z,9.25
2023-01-05T22:59:20.563Z,9.35
2023-01-05T23:01:50.113Z,7.97
2023-01-05T23:04:18.701Z,14.00
2023-01-05T23:06:47.045Z,6.68
2023-01-05T23:09:17.178Z,5.70
2023-01-05T23:11:46.967Z,6.15
2023-01-05T23:14:18.390Z,6.43
2023-01-05T23:16:46.836Z,6.85
2023-01-05T23:19:17.567Z,8.02
2023-01-05T23:21:45.984Z,5.68
2023-01-05T23:24:14.233Z,7.05
2023-01-05T23:26:42.625Z,7.85
2023-01-05T23:29:10.827Z,7.07
2023-01-05T23:31:39.004Z,9.27
2023-01-05T23:34:07.766Z,6.18
2023-01-05T23:36:37.349Z,8.77
2023-01-05T23:39:05.650Z,8.70
2023-01-05T23:41:34.512Z,6.70
2023-01-05T23:44:02.888Z,7.13
2023-01-05T23:46:31.196Z,5.45
2023-01-05T23:48:59.472Z,7.50
2023-01-05T23:51:27.879Z,8.82
2023-01-05T23:53:58.678Z,5.75
2023-01-05T23:56:29.821Z,7.90
2023-01-05T23:59:00.033Z,6.88
